createdAt,value
2019-04-11T00:00:31.384Z,11.20
2019-04-11T00:01:36.788Z,12.30
2019-04-11T00:02:33.059Z,10.30
2019-04-11T00:03:31.355Z,14.10
2019-04-11T00:04:32.303Z,11.80
2019-04-11T00:05:31.273Z,12.40
2019-04-11T00:06:31.806Z,12.70
2019-04-11T00:07:32.092Z,11.10
2019-04-11T00:08:32.181Z,10.70
2019-04-11T00:09:32.494Z,10.90
2019-04-11T00:10:31.343Z,11.50
2019-04-11T00:11:31.206Z,10.60
2019-04-11T00:12:31.188Z,15.10
2019-04-11T00:13:33.432Z,11.80
2019-04-11T00:14:31.719Z,11.00
2019-04-11T00:15:31.155Z,10.50
2019-04-11T00:16:31.146Z,12.00
2019-04-11T00:17:32.130Z,11.50
2019-04-11T00:18:31.148Z,12.60
2019-04-11T00:19:31.562Z,12.60
2019-04-11T00:20:31.878Z,11.50
2019-04-11T00:21:31.100Z,12.30
2019-04-11T00:22:31.084Z,10.50
2019-04-11T00:23:32.298Z,12.70
2019-04-11T00:24:31.383Z,13.80
2019-04-11T00:25:31.668Z,13.50
2019-04-11T00:26:31.044Z,13.20
2019-04-11T00:27:31.028Z,12.50
2019-04-11T00:28:31.973Z,15.00
2019-04-11T00:29:31.285Z,12.70
2019-04-11T00:30:30.992Z,17.00
2019-04-11T00:31:30.991Z,12.90
2019-04-11T00:32:31.646Z,16.80
2019-04-11T00:33:31.953Z,14.90
2019-04-11T00:34:31.110Z,13.80
2019-04-11T00:35:31.447Z,15.40
2019-04-11T00:36:30.928Z,14.10
2019-04-11T00:37:30.930Z,15.70
2019-04-11T00:38:32.008Z,13.10
2019-04-11T00:39:31.869Z,13.70
2019-04-11T00:40:30.891Z,14.20
2019-04-11T00:41:31.326Z,14.20
2019-04-11T00:42:30.866Z,14.60
2019-04-11T00:43:36.944Z,14.90
2019-04-11T00:44:32.758Z,13.50
2019-04-11T00:45:31.795Z,13.40
2019-04-11T00:46:32.001Z,15.30
2019-04-11T00:47:31.178Z,14.10
2019-04-11T00:48:30.803Z,13.30
2019-04-11T00:49:30.808Z,11.90
2019-04-11T00:50:31.603Z,12.20
2019-04-11T00:51:31.695Z,16.40
2019-04-11T00:52:31.476Z,14.10
2019-04-11T00:53:30.968Z,11.60
2019-04-11T00:54:31.067Z,13.40
2019-04-11T00:55:31.482Z,13.70
2019-04-11T00:56:30.708Z,14.00
2019-04-11T00:57:30.767Z,13.10
2019-04-11T00:58:31.800Z,14.20
2019-04-11T00:59:30.671Z,14.80
2019-04-11T01:00:31.283Z,15.00
2019-04-11T01:01:31.619Z,15.00
2019-04-11T01:02:31.548Z,14.90
2019-04-11T01:03:30.660Z,12.90
2019-04-11T01:04:30.676Z,13.10
2019-04-11T01:05:31.723Z,13.30
2019-04-11T01:06:30.598Z,14.90
2019-04-11T01:07:31.134Z,13.70
2019-04-11T01:08:31.477Z,15.30
2019-04-11T01:09:30.668Z,14.30
2019-04-11T01:10:30.562Z,14.20
2019-04-11T01:11:30.550Z,12.70
2019-04-11T01:12:30.556Z,15.20
2019-04-11T01:13:41.468Z,12.20
2019-04-11T01:14:32.058Z,13.90
2019-04-11T01:15:31.379Z,13.00
2019-04-11T01:16:30.521Z,13.60
2019-04-11T01:17:31.519Z,17.60
2019-04-11T01:18:30.469Z,15.50
2019-04-11T01:19:30.962Z,13.60
2019-04-11T01:20:31.414Z,16.90
2019-04-11T01:21:30.654Z,13.20
2019-04-11T01:22:30.422Z,12.80
2019-04-11T01:23:31.105Z,14.50
2019-04-11T01:24:31.438Z,11.60
2019-04-11T01:25:30.679Z,12.50
2019-04-11T01:26:30.383Z,13.30
2019-04-11T01:27:30.373Z,11.90
2019-04-11T01:28:31.015Z,13.10
2019-04-11T01:29:31.333Z,12.50
2019-04-11T01:30:31.708Z,15.50
2019-04-11T01:31:30.496Z,13.00
2019-04-11T01:32:30.587Z,11.40
2019-04-11T01:33:30.307Z,12.00
2019-04-11T01:34:30.778Z,12.70
2019-04-11T01:35:31.087Z,12.20
2019-04-11T01:36:31.131Z,11.40
2019-04-11T01:37:31.394Z,13.70
2019-04-11T01:38:30.505Z,12.00
2019-04-11T01:39:30.282Z,13.20
2019-04-11T01:40:30.236Z,11.50
2019-04-11T01:41:30.905Z,11.90
2019-04-11T01:42:31.209Z,10.90
2019-04-11T01:43:30.728Z,12.30
2019-04-11T01:44:30.433Z,14.40
2019-04-11T01:45:30.179Z,11.90
2019-04-11T01:46:30.158Z,11.50
2019-04-11T01:47:30.915Z,11.40
2019-04-11T01:48:31.168Z,11.50
2019-04-11T01:49:30.370Z,10.10
2019-04-11T01:50:30.128Z,12.00
2019-04-11T01:51:30.103Z,11.10
2019-04-11T01:52:30.646Z,12.50
2019-04-11T01:53:31.038Z,11.20
2019-04-11T01:54:30.104Z,11.70
2019-04-11T01:55:30.064Z,11.30
2019-04-11T01:56:30.067Z,11.70
2019-04-11T01:57:30.038Z,9.20
2019-04-11T01:58:30.932Z,11.10
2019-04-11T01:59:31.178Z,11.50
2019-04-11T02:00:30.200Z,11.30
2019-04-11T02:01:30.605Z,10.90
2019-04-11T02:02:30.637Z,11.30
2019-04-11T02:03:30.852Z,9.30
2019-04-11T02:04:30.108Z,13.70
2019-04-11T02:05:29.950Z,12.40
2019-04-11T02:06:29.950Z,11.20
2019-04-11T02:07:30.949Z,9.90
2019-04-11T02:08:29.915Z,11.20
2019-04-11T02:09:30.406Z,10.60
2019-04-11T02:10:29.896Z,10.70
2019-04-11T02:11:29.909Z,9.30
2019-04-11T02:12:30.983Z,12.10
2019-04-11T02:13:30.069Z,10.60
2019-04-11T02:14:29.859Z,12.10
2019-04-11T02:15:30.426Z,12.50
2019-04-11T02:16:29.827Z,11.20
2019-04-11T02:17:30.719Z,10.50
2019-04-11T02:18:29.814Z,10.40
2019-04-11T02:19:29.801Z,10.30
2019-04-11T02:20:29.788Z,11.30
2019-04-11T02:21:29.782Z,12.20
2019-04-11T02:22:30.545Z,11.30
2019-04-11T02:23:30.855Z,8.70
2019-04-11T02:24:30.032Z,10.20
2019-04-11T02:25:30.383Z,11.20
2019-04-11T02:26:29.719Z,11.00
2019-04-11T02:27:30.765Z,10.40
2019-04-11T02:28:30.828Z,10.10
2019-04-11T02:29:29.857Z,12.20
2019-04-11T02:30:30.535Z,11.40
2019-04-11T02:31:30.571Z,12.30
2019-04-11T02:32:29.706Z,10.70
2019-04-11T02:33:30.636Z,7.90
2019-04-11T02:34:29.828Z,12.80
2019-04-11T02:35:31.104Z,10.40
2019-04-11T02:36:31.392Z,9.50
2019-04-11T02:37:31.526Z,10.70
2019-04-11T02:38:30.507Z,12.40
2019-04-11T02:39:32.908Z,12.40
2019-04-11T02:40:30.554Z,11.50
2019-04-11T02:41:30.295Z,8.50
2019-04-11T02:42:30.686Z,10.90
2019-04-11T02:43:29.680Z,12.20
2019-04-11T02:44:45.763Z,10.70
2019-04-11T02:45:42.664Z,10.50
2019-04-11T02:46:40.875Z,14.10
2019-04-11T02:47:32.869Z,13.60
2019-04-11T02:48:31.069Z,10.60
2019-04-11T02:49:31.127Z,14.10
2019-04-11T02:50:29.961Z,8.40
2019-04-11T02:51:31.032Z,11.70
2019-04-11T02:52:29.436Z,12.00
2019-04-11T02:53:30.701Z,12.20
2019-04-11T02:54:30.651Z,13.40
2019-04-11T02:55:29.574Z,13.90
2019-04-11T02:56:31.088Z,13.80
2019-04-11T02:57:30.058Z,10.40
2019-04-11T02:58:30.037Z,12.00
2019-04-11T02:59:30.309Z,11.60
2019-04-11T03:00:30.999Z,12.30
2019-04-11T03:01:29.337Z,13.60
2019-04-11T03:02:30.806Z,14.30
2019-04-11T03:03:29.861Z,12.10
2019-04-11T03:04:30.841Z,13.90
2019-04-11T03:05:30.917Z,9.40
2019-04-11T03:06:30.846Z,12.20
2019-04-11T03:07:30.014Z,10.80
2019-04-11T03:08:31.749Z,12.00
2019-04-11T03:09:29.681Z,12.00
2019-04-11T03:10:31.283Z,10.90
2019-04-11T03:11:30.329Z,12.00
2019-04-11T03:12:29.793Z,9.60
2019-04-11T03:13:29.556Z,10.20
2019-04-11T03:14:44.724Z,11.60
2019-04-11T03:15:44.641Z,8.20
2019-04-11T03:16:42.857Z,11.20
2019-04-11T03:17:35.851Z,10.20
2019-04-11T03:18:46.152Z,11.00
2019-04-11T03:19:43.965Z,11.10
2019-04-11T03:20:37.117Z,11.30
2019-04-11T03:21:33.185Z,12.20
2019-04-11T03:22:30.122Z,9.80
2019-04-11T03:23:29.109Z,11.40
2019-04-11T03:24:31.055Z,11.20
2019-04-11T03:25:30.666Z,10.30
2019-04-11T03:26:29.277Z,11.30
2019-04-11T03:27:30.480Z,7.90
2019-04-11T03:28:31.334Z,10.10
2019-04-11T03:29:30.894Z,10.20
2019-04-11T03:30:48.916Z,11.40
2019-04-11T03:32:13.320Z,11.30
2019-04-11T03:33:28.972Z,10.00
2019-04-11T03:37:13.879Z,9.30
2019-04-11T03:37:53.669Z,11.90
2019-04-11T03:38:55.241Z,9.60
2019-04-11T03:39:50.687Z,10.30
2019-04-11T03:40:46.647Z,10.90
2019-04-11T03:41:50.387Z,9.50
2019-04-11T03:42:42.972Z,10.70
2019-04-11T03:43:39.552Z,10.80
2019-04-11T03:44:37.185Z,9.80
2019-04-11T03:45:47.958Z,11.60
2019-04-11T03:46:48.309Z,12.30
2019-04-11T03:47:40.892Z,12.60
2019-04-11T03:48:42.163Z,13.40
2019-04-11T03:49:39.918Z,11.10
2019-04-11T03:50:32.218Z,14.00
2019-04-11T03:51:29.703Z,9.10
2019-04-11T03:52:30.431Z,12.90
2019-04-11T03:53:29.913Z,12.40
2019-04-11T03:54:29.457Z,13.60
2019-04-11T03:55:30.736Z,14.20
2019-04-11T03:56:28.776Z,12.20
2019-04-11T03:57:29.881Z,19.30
2019-04-11T03:58:29.450Z,28.70
2019-04-11T03:59:29.038Z,24.10
2019-04-11T04:00:35.448Z,19.30
2019-04-11T04:01:29.777Z,12.00
2019-04-11T04:02:28.691Z,15.50
2019-04-11T04:03:29.665Z,12.60
2019-04-11T04:04:29.144Z,11.90
2019-04-11T04:05:32.367Z,16.00
2019-04-11T04:06:31.007Z,13.60
2019-04-11T04:07:29.671Z,14.20
2019-04-11T04:08:29.748Z,14.60
2019-04-11T04:09:29.518Z,19.50
2019-04-11T04:10:29.615Z,14.70
2019-04-11T04:11:31.615Z,12.50
2019-04-11T04:12:29.353Z,13.70
2019-04-11T04:13:31.674Z,15.70
2019-04-11T04:14:29.056Z,11.20
2019-04-11T04:15:40.106Z,16.50
2019-04-11T04:16:35.975Z,14.50
2019-04-11T04:17:30.791Z,15.60
2019-04-11T04:18:29.901Z,12.50
2019-04-11T04:19:30.380Z,12.90
2019-04-11T04:20:28.984Z,15.40
2019-04-11T04:21:28.904Z,12.60
2019-04-11T04:22:29.440Z,13.60
2019-04-11T04:23:29.518Z,14.40
2019-04-11T04:24:32.143Z,10.70
2019-04-11T04:25:29.446Z,13.30
2019-04-11T04:26:29.197Z,10.80
2019-04-11T04:27:30.333Z,12.20
2019-04-11T04:28:29.433Z,12.30
2019-04-11T04:29:29.344Z,12.50
2019-04-11T04:30:29.788Z,11.70
2019-04-11T04:31:28.685Z,12.30
2019-04-11T04:32:30.254Z,12.90
2019-04-11T04:33:29.466Z,11.80
2019-04-11T04:34:28.604Z,10.90
2019-04-11T04:35:28.603Z,11.60
2019-04-11T04:36:29.424Z,11.90
2019-04-11T04:37:29.572Z,13.20
2019-04-11T04:38:29.547Z,11.70
2019-04-11T04:39:29.827Z,12.60
2019-04-11T04:40:42.214Z,14.60
2019-04-11T04:41:37.746Z,12.00
2019-04-11T04:42:35.977Z,14.20
2019-04-11T04:43:30.102Z,11.90
2019-04-11T04:44:29.719Z,14.30
2019-04-11T04:45:30.040Z,16.50
2019-04-11T04:46:45.233Z,15.00
2019-04-11T04:47:37.325Z,13.90
2019-04-11T04:48:30.147Z,14.90
2019-04-11T04:49:29.955Z,15.00
2019-04-11T04:50:28.679Z,12.90
2019-04-11T04:51:28.932Z,11.70
2019-04-11T04:52:29.677Z,11.40
2019-04-11T04:53:28.476Z,13.90
2019-04-11T04:54:28.473Z,11.60
2019-04-11T04:55:30.160Z,12.30
2019-04-11T04:56:31.643Z,12.70
2019-04-11T04:57:29.720Z,13.60
2019-04-11T04:58:29.326Z,12.00
2019-04-11T04:59:28.630Z,13.50
2019-04-11T05:00:29.651Z,10.70
2019-04-11T05:01:29.117Z,14.30
2019-04-11T05:02:28.704Z,12.10
2019-04-11T05:03:29.652Z,14.90
2019-04-11T05:04:29.633Z,15.30
2019-04-11T05:05:29.230Z,14.30
2019-04-11T05:06:28.230Z,13.40
2019-04-11T05:07:32.208Z,10.90
2019-04-11T05:08:30.453Z,13.40
2019-04-11T05:09:28.004Z,12.10
2019-04-11T05:10:28.490Z,12.00
2019-04-11T05:11:28.403Z,12.80
2019-04-11T05:12:28.207Z,11.50
2019-04-11T05:13:28.145Z,10.80
2019-04-11T05:14:29.427Z,12.20
2019-04-11T05:15:28.279Z,13.00
2019-04-11T05:16:27.908Z,12.40
2019-04-11T05:17:28.938Z,10.40
2019-04-11T05:18:27.960Z,12.20
2019-04-11T05:19:28.571Z,12.40
2019-04-11T05:20:28.166Z,12.70
2019-04-11T05:21:27.841Z,12.20
2019-04-11T05:22:27.833Z,13.10
2019-04-11T05:23:27.835Z,12.10
2019-04-11T05:24:28.309Z,10.20
2019-04-11T05:25:28.628Z,11.00
2019-04-11T05:26:27.925Z,10.70
2019-04-11T05:27:27.795Z,12.50
2019-04-11T05:28:27.777Z,12.10
2019-04-11T05:29:27.759Z,12.70
2019-04-11T05:30:27.743Z,14.40
2019-04-11T05:31:27.729Z,11.20
2019-04-11T05:32:27.729Z,14.60
2019-04-11T05:33:27.723Z,13.10
2019-04-11T05:34:28.044Z,11.00
2019-04-11T05:35:27.695Z,11.60
2019-04-11T05:36:28.295Z,11.90
2019-04-11T05:37:27.688Z,10.90
2019-04-11T05:38:27.692Z,12.30
2019-04-11T05:39:27.695Z,13.10
2019-04-11T05:40:28.130Z,15.10
2019-04-11T05:41:27.625Z,10.80
2019-04-11T05:42:27.613Z,14.90
2019-04-11T05:43:31.408Z,11.60
2019-04-11T05:44:28.597Z,14.60
2019-04-11T05:45:27.591Z,14.30
2019-04-11T05:46:35.288Z,12.80
2019-04-11T05:47:29.614Z,13.80
2019-04-11T05:48:28.652Z,15.10
2019-04-11T05:49:29.075Z,12.20
2019-04-11T05:50:28.568Z,13.50
2019-04-11T05:51:38.910Z,13.90
2019-04-11T05:52:31.075Z,10.90
2019-04-11T05:53:27.950Z,10.00
2019-04-11T05:54:28.092Z,12.50
2019-04-11T05:55:28.012Z,11.40
2019-04-11T05:56:27.847Z,12.40
2019-04-11T05:57:34.091Z,12.20
2019-04-11T05:58:28.459Z,14.10
2019-04-11T05:59:27.429Z,13.70
2019-04-11T06:00:28.423Z,10.40
2019-04-11T06:01:27.993Z,10.60
2019-04-11T06:02:27.399Z,10.90
2019-04-11T06:03:28.311Z,9.80
2019-04-11T06:04:29.926Z,10.40
2019-04-11T06:05:31.816Z,13.00
2019-04-11T06:06:31.905Z,10.90
2019-04-11T06:07:29.302Z,11.80
2019-04-11T06:08:30.009Z,8.40
2019-04-11T06:09:30.256Z,10.40
2019-04-11T06:10:28.361Z,10.60
2019-04-11T06:11:28.447Z,12.00
2019-04-11T06:12:27.541Z,9.70
2019-04-11T06:13:27.280Z,12.20
2019-04-11T06:14:27.261Z,12.10
2019-04-11T06:15:27.256Z,12.90
2019-04-11T06:16:36.951Z,11.00
2019-04-11T06:17:28.233Z,11.10
2019-04-11T06:18:33.117Z,12.60
2019-04-11T06:19:28.317Z,10.40
2019-04-11T06:20:27.239Z,11.50
2019-04-11T06:21:28.283Z,12.10
2019-04-11T06:22:27.176Z,12.00
2019-04-11T06:23:27.565Z,10.40
2019-04-11T06:24:27.996Z,10.60
2019-04-11T06:25:28.261Z,11.80
2019-04-11T06:26:27.150Z,11.00
2019-04-11T06:27:28.338Z,11.30
2019-04-11T06:28:27.749Z,10.50
2019-04-11T06:29:28.395Z,11.40
2019-04-11T06:30:28.292Z,10.30
2019-04-11T06:31:27.089Z,11.30
2019-04-11T06:32:27.873Z,11.80
2019-04-11T06:33:27.057Z,11.10
2019-04-11T06:34:27.111Z,9.50
2019-04-11T06:35:28.205Z,9.90
2019-04-11T06:36:28.113Z,12.00
2019-04-11T06:37:27.735Z,10.90
2019-04-11T06:38:26.999Z,10.10
2019-04-11T06:39:27.419Z,10.90
2019-04-11T06:40:27.766Z,11.20
2019-04-11T06:41:26.989Z,9.50
2019-04-11T06:42:28.610Z,13.60
2019-04-11T06:43:27.842Z,11.50
2019-04-11T06:44:28.013Z,11.50
2019-04-11T06:45:27.246Z,12.00
2019-04-11T06:46:27.185Z,11.20
2019-04-11T06:47:27.200Z,11.70
2019-04-11T06:48:26.914Z,10.00
2019-04-11T06:49:26.878Z,9.90
2019-04-11T06:50:27.125Z,11.30
2019-04-11T06:51:28.074Z,11.60
2019-04-11T06:52:26.844Z,13.00
2019-04-11T06:53:27.984Z,10.70
2019-04-11T06:54:26.880Z,10.10
2019-04-11T06:55:26.837Z,11.10
2019-04-11T06:56:27.306Z,12.20
2019-04-11T06:57:26.792Z,11.70
2019-04-11T06:58:27.654Z,15.80
2019-04-11T06:59:26.776Z,10.30
2019-04-11T07:00:27.302Z,10.70
2019-04-11T07:01:27.867Z,11.60
2019-04-11T07:02:27.832Z,12.30
2019-04-11T07:03:29.249Z,17.70
2019-04-11T07:04:27.368Z,12.90
2019-04-11T07:05:26.832Z,15.50
2019-04-11T07:06:27.301Z,11.80
2019-04-11T07:07:28.784Z,10.50
2019-04-11T07:08:26.672Z,15.20
2019-04-11T07:09:26.660Z,8.50
2019-04-11T07:10:26.728Z,11.00
2019-04-11T07:11:27.614Z,8.40
2019-04-11T07:12:26.646Z,9.50
2019-04-11T07:13:26.628Z,10.20
2019-04-11T07:14:26.999Z,12.70
2019-04-11T07:15:27.229Z,9.40
2019-04-11T07:16:27.611Z,10.10
2019-04-11T07:17:27.532Z,11.50
2019-04-11T07:18:26.926Z,10.70
2019-04-11T07:19:26.576Z,9.40
2019-04-11T07:20:27.251Z,11.40
2019-04-11T07:21:27.589Z,13.00
2019-04-11T07:22:26.522Z,12.60
2019-04-11T07:23:26.569Z,12.10
2019-04-11T07:24:26.497Z,10.40
2019-04-11T07:25:26.901Z,15.20
2019-04-11T07:26:27.363Z,9.40
2019-04-11T07:27:26.465Z,9.30
2019-04-11T07:28:27.359Z,9.40
2019-04-11T07:29:26.442Z,9.40
2019-04-11T07:30:26.443Z,9.40
2019-04-11T07:31:27.661Z,9.50
2019-04-11T07:32:27.704Z,11.20
2019-04-11T07:33:26.707Z,9.40
2019-04-11T07:34:27.320Z,8.40
2019-04-11T07:35:27.681Z,9.60
2019-04-11T07:36:27.395Z,12.20
2019-04-11T07:37:26.354Z,10.20
2019-04-11T07:38:27.261Z,8.00
2019-04-11T07:39:26.556Z,11.50
2019-04-11T07:40:27.090Z,7.50
2019-04-11T07:41:26.310Z,9.50
2019-04-11T07:42:26.569Z,10.40
2019-04-11T07:43:26.892Z,10.50
2019-04-11T07:44:28.703Z,11.00
2019-04-11T07:45:26.416Z,9.80
2019-04-11T07:46:27.368Z,11.00
2019-04-11T07:47:27.645Z,8.90
2019-04-11T07:48:27.243Z,10.70
2019-04-11T07:49:26.516Z,9.90
2019-04-11T07:50:27.424Z,11.20
2019-04-11T07:51:27.472Z,10.20
2019-04-11T07:52:27.580Z,8.40
2019-04-11T07:53:26.317Z,12.00
2019-04-11T07:54:26.169Z,13.00
2019-04-11T07:55:26.161Z,11.70
2019-04-11T07:56:27.320Z,6.40
2019-04-11T07:57:26.382Z,9.90
2019-04-11T07:58:26.362Z,7.60
2019-04-11T07:59:27.164Z,12.50
2019-04-11T08:00:36.648Z,12.70
2019-04-11T08:01:27.155Z,8.80
2019-04-11T08:02:26.828Z,9.70
2019-04-11T08:03:26.069Z,11.90
2019-04-11T08:04:26.090Z,9.00
2019-04-11T08:05:26.058Z,9.10
2019-04-11T08:06:26.508Z,9.60
2019-04-11T08:07:26.033Z,12.40
2019-04-11T08:08:26.016Z,10.30
2019-04-11T08:09:26.773Z,8.00
2019-04-11T08:10:27.166Z,8.90
2019-04-11T08:11:25.997Z,9.30
2019-04-11T08:12:27.600Z,6.80
2019-04-11T08:13:26.245Z,9.70
2019-04-11T08:14:26.592Z,6.30
2019-04-11T08:15:25.937Z,8.10
2019-04-11T08:16:26.739Z,7.80
2019-04-11T08:17:35.721Z,8.70
2019-04-11T08:18:26.902Z,6.20
2019-04-11T08:19:26.844Z,5.40
2019-04-11T08:20:25.886Z,8.10
2019-04-11T08:21:26.173Z,6.60
2019-04-11T08:22:25.871Z,8.70
2019-04-11T08:23:25.856Z,9.10
2019-04-11T08:24:28.386Z,7.50
2019-04-11T08:25:26.000Z,7.20
2019-04-11T08:26:26.260Z,10.60
2019-04-11T08:27:25.811Z,7.80
2019-04-11T08:28:26.937Z,7.50
2019-04-11T08:29:27.069Z,9.80
2019-04-11T08:30:26.590Z,5.40
2019-04-11T08:31:26.473Z,6.60
2019-04-11T08:32:25.761Z,7.40
2019-04-11T08:33:26.744Z,6.50
2019-04-11T08:34:26.991Z,7.70
2019-04-11T08:35:26.265Z,6.90
2019-04-11T08:36:26.092Z,7.00
2019-04-11T08:37:25.722Z,7.90
2019-04-11T08:38:26.699Z,6.40
2019-04-11T08:39:25.793Z,5.40
2019-04-11T08:40:25.998Z,10.00
2019-04-11T08:41:25.660Z,6.70
2019-04-11T08:42:25.689Z,8.20
2019-04-11T08:43:26.813Z,7.40
2019-04-11T08:44:25.967Z,7.20
2019-04-11T08:45:25.833Z,7.70
2019-04-11T08:46:26.718Z,8.00
2019-04-11T08:47:39.354Z,7.50
2019-04-11T08:48:26.685Z,4.50
2019-04-11T08:49:26.645Z,5.90
2019-04-11T08:50:26.184Z,8.10
2019-04-11T08:51:25.555Z,7.60
2019-04-11T08:52:25.540Z,5.50
2019-04-11T08:53:26.766Z,8.40
2019-04-11T08:54:25.822Z,7.20
2019-04-11T08:55:25.514Z,4.70
2019-04-11T08:56:25.504Z,8.50
2019-04-11T08:57:25.497Z,6.60
2019-04-11T08:58:26.643Z,5.50
2019-04-11T08:59:25.476Z,4.30
2019-04-11T09:00:26.268Z,6.00
2019-04-11T09:01:25.448Z,6.50
2019-04-11T09:02:25.426Z,4.20
2019-04-11T09:03:25.994Z,4.00
2019-04-11T09:04:26.014Z,7.00
2019-04-11T09:05:25.404Z,5.50
2019-04-11T09:06:25.388Z,5.70
2019-04-11T09:07:25.481Z,6.20
2019-04-11T09:08:26.722Z,5.50
2019-04-11T09:09:25.389Z,6.50
2019-04-11T09:10:26.172Z,7.00
2019-04-11T09:11:25.623Z,8.40
2019-04-11T09:12:26.706Z,7.80
2019-04-11T09:13:25.316Z,7.30
2019-04-11T09:14:26.388Z,7.00
2019-04-11T09:15:25.292Z,6.20
2019-04-11T09:16:25.780Z,5.90
2019-04-11T09:17:26.167Z,6.20
2019-04-11T09:18:25.992Z,6.50
2019-04-11T09:19:25.249Z,7.20
2019-04-11T09:20:25.410Z,6.00
2019-04-11T09:21:26.468Z,4.70
2019-04-11T09:22:25.214Z,5.70
2019-04-11T09:23:25.894Z,6.40
2019-04-11T09:24:26.313Z,9.10
2019-04-11T09:25:25.327Z,4.70
2019-04-11T09:26:25.670Z,5.00
2019-04-11T09:27:25.152Z,5.10
2019-04-11T09:28:25.139Z,5.30
2019-04-11T09:29:26.135Z,5.60
2019-04-11T09:30:25.131Z,3.80
2019-04-11T09:31:25.510Z,4.10
2019-04-11T09:32:25.594Z,4.40
2019-04-11T09:33:25.086Z,4.10
2019-04-11T09:34:25.925Z,6.00
2019-04-11T09:35:25.070Z,6.30
2019-04-11T09:36:26.048Z,6.90
2019-04-11T09:37:25.382Z,3.60
2019-04-11T09:38:25.039Z,5.00
2019-04-11T09:39:25.013Z,6.30
2019-04-11T09:40:26.404Z,9.00
2019-04-11T09:41:25.010Z,7.00
2019-04-11T09:42:26.121Z,6.00
2019-04-11T09:43:26.186Z,7.50
2019-04-11T09:44:24.969Z,5.80
2019-04-11T09:45:25.735Z,6.70
2019-04-11T09:46:26.122Z,5.30
2019-04-11T09:47:24.957Z,4.50
2019-04-11T09:48:26.229Z,6.00
2019-04-11T09:49:24.912Z,4.50
2019-04-11T09:50:24.898Z,3.70
2019-04-11T09:51:27.351Z,4.20
2019-04-11T09:52:24.893Z,5.10
2019-04-11T09:53:26.085Z,3.00
2019-04-11T09:54:26.099Z,4.00
2019-04-11T09:55:25.503Z,5.70
2019-04-11T09:56:24.951Z,7.60
2019-04-11T09:57:24.986Z,7.60
2019-04-11T09:58:25.318Z,5.90
2019-04-11T09:59:25.072Z,5.60
2019-04-11T10:00:24.783Z,4.60
2019-04-11T10:01:24.780Z,4.20
2019-04-11T10:02:25.356Z,4.80
2019-04-11T10:03:25.603Z,4.30
2019-04-11T10:04:25.637Z,3.30
2019-04-11T10:05:24.760Z,4.30
2019-04-11T10:06:24.785Z,5.10
2019-04-11T10:07:25.779Z,4.90
2019-04-11T10:08:24.705Z,3.90
2019-04-11T10:09:26.012Z,3.30
2019-04-11T10:10:24.709Z,1.90
2019-04-11T10:11:24.702Z,5.50
2019-04-11T10:12:24.677Z,2.00
2019-04-11T10:13:25.010Z,3.50
2019-04-11T10:14:25.767Z,2.70
2019-04-11T10:15:24.622Z,4.50
2019-04-11T10:16:24.634Z,3.50
2019-04-11T10:17:26.389Z,4.10
2019-04-11T10:18:30.028Z,5.00
2019-04-11T10:19:25.586Z,3.90
2019-04-11T10:20:24.622Z,4.30
2019-04-11T10:21:25.855Z,4.00
2019-04-11T10:22:24.799Z,5.40
2019-04-11T10:23:25.041Z,5.50
2019-04-11T10:24:24.530Z,6.00
2019-04-11T10:25:25.383Z,4.10
2019-04-11T10:26:25.679Z,2.80
2019-04-11T10:27:24.715Z,4.40
2019-04-11T10:28:25.080Z,3.30
2019-04-11T10:29:25.736Z,5.30
2019-04-11T10:30:25.748Z,2.00
2019-04-11T10:31:24.461Z,3.30
2019-04-11T10:32:25.373Z,2.90
2019-04-11T10:33:24.756Z,6.00
2019-04-11T10:34:24.414Z,3.40
2019-04-11T10:35:24.412Z,4.10
2019-04-11T10:36:25.345Z,4.10
2019-04-11T10:37:25.457Z,3.80
2019-04-11T10:38:24.585Z,4.10
2019-04-11T10:39:25.014Z,5.00
2019-04-11T10:40:24.340Z,3.70
2019-04-11T10:41:25.204Z,2.10
2019-04-11T10:42:24.384Z,3.30
2019-04-11T10:43:24.607Z,5.00
2019-04-11T10:44:25.609Z,5.10
2019-04-11T10:45:24.913Z,3.30
2019-04-11T10:46:25.168Z,4.10
2019-04-11T10:47:25.016Z,4.30
2019-04-11T10:48:34.592Z,2.40
2019-04-11T10:49:26.308Z,4.50
2019-04-11T10:50:24.245Z,4.70
2019-04-11T10:51:24.644Z,4.40
2019-04-11T10:52:24.632Z,3.60
2019-04-11T10:53:24.954Z,3.70
2019-04-11T10:54:24.208Z,1.80
2019-04-11T10:55:25.299Z,3.20
2019-04-11T10:56:24.521Z,2.50
2019-04-11T10:57:24.397Z,2.30
2019-04-11T10:58:24.723Z,3.10
2019-04-11T10:59:26.531Z,4.70
2019-04-11T11:00:24.139Z,3.30
2019-04-11T11:01:25.134Z,4.70
2019-04-11T11:02:25.145Z,4.70
2019-04-11T11:03:24.397Z,3.10
2019-04-11T11:04:24.086Z,4.10
2019-04-11T11:05:24.319Z,2.20
2019-04-11T11:06:24.066Z,3.10
2019-04-11T11:07:24.637Z,3.50
2019-04-11T11:08:24.043Z,3.60
2019-04-11T11:09:24.047Z,4.20
2019-04-11T11:10:24.025Z,4.00
2019-04-11T11:11:24.166Z,4.40
2019-04-11T11:12:25.250Z,3.60
2019-04-11T11:13:24.003Z,2.70
2019-04-11T11:14:24.865Z,4.40
2019-04-11T11:15:25.222Z,3.70
2019-04-11T11:16:24.782Z,3.80
2019-04-11T11:17:47.101Z,3.50
2019-04-11T11:18:43.989Z,3.70
2019-04-11T11:19:43.637Z,3.10
2019-04-11T11:20:32.828Z,3.00
2019-04-11T11:21:27.570Z,2.70
2019-04-11T11:22:25.266Z,2.10
2019-04-11T11:23:24.670Z,2.90
2019-04-11T11:24:23.989Z,3.60
2019-04-11T11:25:24.653Z,4.60
2019-04-11T11:26:25.666Z,4.50
2019-04-11T11:27:24.415Z,4.20
2019-04-11T11:28:23.858Z,4.10
2019-04-11T11:29:24.302Z,3.50
2019-04-11T11:30:25.017Z,2.40
2019-04-11T11:31:24.420Z,4.50
2019-04-11T11:32:23.781Z,3.10
2019-04-11T11:33:25.144Z,3.10
2019-04-11T11:34:24.855Z,4.70
2019-04-11T11:35:27.671Z,3.20
2019-04-11T11:36:25.732Z,2.10
2019-04-11T11:37:24.846Z,3.10
2019-04-11T11:38:24.143Z,2.80
2019-04-11T11:39:24.735Z,1.60
2019-04-11T11:40:23.851Z,2.50
2019-04-11T11:41:24.756Z,3.30
2019-04-11T11:42:23.669Z,4.10
2019-04-11T11:43:23.666Z,3.60
2019-04-11T11:44:24.546Z,2.80
2019-04-11T11:45:23.701Z,9.90
2019-04-11T11:46:26.702Z,3.80
2019-04-11T11:47:25.845Z,3.70
2019-04-11T11:48:24.808Z,3.60
2019-04-11T11:49:41.771Z,2.20
2019-04-11T11:50:24.791Z,3.80
2019-04-11T11:51:26.944Z,3.20
2019-04-11T11:52:24.822Z,3.60
2019-04-11T11:53:25.855Z,4.50
2019-04-11T11:54:24.007Z,3.90
2019-04-11T11:55:23.527Z,2.70
2019-04-11T11:56:24.137Z,3.00
2019-04-11T11:57:23.582Z,4.20
2019-04-11T11:58:23.712Z,3.90
2019-04-11T11:59:23.502Z,4.80
2019-04-11T12:00:23.667Z,2.50
2019-04-11T12:01:24.072Z,4.50
2019-04-11T12:02:23.454Z,3.70
2019-04-11T12:03:26.512Z,3.10
2019-04-11T12:04:26.048Z,5.40
2019-04-11T12:05:26.082Z,4.30
2019-04-11T12:06:23.866Z,5.00
2019-04-11T12:07:23.392Z,4.00
2019-04-11T12:08:24.545Z,3.40
2019-04-11T12:09:24.524Z,4.00
2019-04-11T12:10:23.950Z,4.20
2019-04-11T12:11:24.089Z,4.70
2019-04-11T12:12:23.919Z,4.80
2019-04-11T12:13:23.329Z,4.50
2019-04-11T12:14:24.271Z,4.90
2019-04-11T12:15:25.701Z,4.90
2019-04-11T12:16:23.783Z,3.60
2019-04-11T12:17:23.297Z,4.60
2019-04-11T12:18:24.530Z,5.80
2019-04-11T12:19:23.344Z,4.50
2019-04-11T12:20:23.254Z,6.00
2019-04-11T12:21:26.387Z,7.00
2019-04-11T12:22:24.235Z,4.90
2019-04-11T12:23:24.204Z,4.30
2019-04-11T12:24:23.211Z,4.50
2019-04-11T12:25:23.199Z,6.00
2019-04-11T12:26:23.202Z,3.90
2019-04-11T12:27:23.175Z,5.40
2019-04-11T12:28:23.488Z,4.10
2019-04-11T12:29:24.084Z,5.50
2019-04-11T12:30:26.597Z,6.00
2019-04-11T12:31:24.185Z,3.20
2019-04-11T12:32:24.175Z,5.00
2019-04-11T12:33:23.517Z,5.00
2019-04-11T12:34:24.065Z,4.30
2019-04-11T12:35:24.700Z,4.40
2019-04-11T12:36:23.099Z,3.50
2019-04-11T12:37:23.185Z,5.30
2019-04-11T12:38:24.667Z,3.40
2019-04-11T12:39:24.842Z,5.80
2019-04-11T12:40:23.035Z,6.00
2019-04-11T12:41:23.060Z,5.90
2019-04-11T12:42:23.022Z,3.50
2019-04-11T12:43:23.012Z,6.90
2019-04-11T12:44:22.992Z,3.30
2019-04-11T12:45:22.977Z,3.40
2019-04-11T12:46:29.754Z,5.00
2019-04-11T12:47:23.964Z,4.30
2019-04-11T12:48:22.959Z,5.10
2019-04-11T12:49:22.940Z,5.00
2019-04-11T12:50:22.927Z,6.90
2019-04-11T12:51:22.916Z,5.00
2019-04-11T12:52:22.915Z,5.80
2019-04-11T12:53:23.023Z,7.60
2019-04-11T12:54:22.880Z,3.90
2019-04-11T12:55:22.877Z,3.60
2019-04-11T12:56:22.862Z,3.40
2019-04-11T12:57:22.852Z,5.30
2019-04-11T12:58:22.834Z,5.10
2019-04-11T12:59:22.834Z,4.40
2019-04-11T13:00:22.819Z,5.20
2019-04-11T13:01:22.812Z,4.70
2019-04-11T13:02:22.798Z,6.70
2019-04-11T13:03:22.830Z,3.60
2019-04-11T13:04:22.772Z,5.30
2019-04-11T13:05:22.778Z,4.10
2019-04-11T13:06:22.744Z,12.30